メインページ
METAR-TAF:

METAR-TAF

空港 :

Sullivan County International Airport

Monticello, ニューヨーク, アメリカ合衆国

緯度: 41-42N, 経度: 074-48W, 海抜: 428m

現時点の気象観測

当レポートは1時間3分前の14:56(UTC)に作成
南東の風 4kt
気温 -9°C
湿度 57%
気圧 1028 hPa
視程: 16.1km
高度5500ftの曇り

METAR: KMSV 181456Z AUTO 14004KT 10SM OVC055 M09/M16 A3036 RMK AO2 SLP311 T10891156 56035 FZRANO

時間: 10:59 (15:59 UTC)


TAF: 見つかりません

4,000以上の空港の気象観測と天気予報(METAR報とTAF報)

利用可能な観測所は地図上に黄色い丸と赤い丸で示す。

丸の上にカーソルを重ねると観測所名を参照できる。

次にクリックすると気象観測と天気予報を参照できる。

マップの切り替え:黒色「×」印の緑ボタンをクリックして拡大、「-」印の緑ボタンをクリックして縮小、緑色の三角印をクリックして隣りの地図に切り替え


METAR-TAF: